createdAt,value
2017-10-15T00:00:38.851Z,28.27
2017-10-15T00:03:05.106Z,19.37
2017-10-15T00:05:32.071Z,24.03
2017-10-15T00:07:58.320Z,23.70
2017-10-15T00:10:24.561Z,23.97
2017-10-15T00:12:50.775Z,28.20
2017-10-15T00:15:16.979Z,19.43
2017-10-15T00:17:43.197Z,18.87
2017-10-15T00:20:09.380Z,27.63
2017-10-15T00:22:35.641Z,24.03
2017-10-15T00:25:01.935Z,17.47
2017-10-15T00:27:28.123Z,27.23
2017-10-15T00:29:54.864Z,25.77
2017-10-15T00:32:21.090Z,18.33
2017-10-15T00:34:47.342Z,31.63
2017-10-15T00:37:13.583Z,18.97
2017-10-15T00:39:39.789Z,18.10
2017-10-15T00:42:05.976Z,26.40
2017-10-15T00:44:32.935Z,21.70
2017-10-15T00:46:59.138Z,28.53
2017-10-15T00:49:25.329Z,16.23
2017-10-15T00:51:51.535Z,12.83
2017-10-15T00:54:17.736Z,14.23
2017-10-15T00:56:44.006Z,22.87
2017-10-15T00:59:10.244Z,18.13
2017-10-15T01:01:36.551Z,17.77
2017-10-15T01:04:02.815Z,26.57
2017-10-15T01:06:29.116Z,18.23
2017-10-15T01:08:56.168Z,19.43
2017-10-15T01:11:22.527Z,18.73
2017-10-15T01:13:48.767Z,25.13
2017-10-15T01:16:15.005Z,21.17
2017-10-15T01:18:41.288Z,12.20
2017-10-15T01:21:07.520Z,13.50
2017-10-15T01:23:33.746Z,14.80
2017-10-15T01:26:00.746Z,18.13
2017-10-15T01:28:27.019Z,14.70
2017-10-15T01:30:53.340Z,17.67
2017-10-15T01:33:19.571Z,21.60
2017-10-15T01:35:45.807Z,21.37
2017-10-15T01:38:12.107Z,16.90
2017-10-15T01:40:38.353Z,14.60
2017-10-15T01:43:04.584Z,26.33
2017-10-15T01:45:30.823Z,14.57
2017-10-15T01:47:57.823Z,19.33
2017-10-15T01:50:24.066Z,19.00
2017-10-15T01:52:50.358Z,21.47
2017-10-15T01:55:16.642Z,28.33
2017-10-15T01:57:42.869Z,17.97
2017-10-15T02:00:09.903Z,18.83
2017-10-15T02:02:36.110Z,27.73
2017-10-15T02:05:03.087Z,15.17
2017-10-15T02:07:29.325Z,25.33
2017-10-15T02:09:55.674Z,18.70
2017-10-15T02:12:21.961Z,11.27
2017-10-15T02:14:48.275Z,16.60
2017-10-15T02:17:14.452Z,14.13
2017-10-15T02:19:40.622Z,21.83
2017-10-15T02:22:06.900Z,19.13
2017-10-15T02:24:33.094Z,19.40
2017-10-15T02:26:59.298Z,22.17
2017-10-15T02:29:25.546Z,17.87
2017-10-15T02:31:51.824Z,21.10
2017-10-15T02:34:18.028Z,17.27
2017-10-15T02:36:44.255Z,18.87
2017-10-15T02:39:10.487Z,21.13
2017-10-15T02:41:36.729Z,22.90
2017-10-15T02:44:03.047Z,19.73
2017-10-15T02:46:29.317Z,15.53
2017-10-15T02:48:55.523Z,27.83
2017-10-15T02:51:21.709Z,25.20
2017-10-15T02:53:47.954Z,17.80
2017-10-15T02:56:14.222Z,13.80
2017-10-15T02:58:40.490Z,26.73
2017-10-15T03:01:06.723Z,14.17
2017-10-15T03:03:32.948Z,29.97
2017-10-15T03:05:59.208Z,13.50
2017-10-15T03:08:25.397Z,18.07
2017-10-15T03:10:51.615Z,19.40
2017-10-15T03:13:17.822Z,14.80
2017-10-15T03:15:44.076Z,20.90
2017-10-15T03:18:10.304Z,23.87
2017-10-15T03:20:36.503Z,17.77
2017-10-15T03:23:02.711Z,20.63
2017-10-15T03:25:29.041Z,20.83
2017-10-15T03:27:55.269Z,19.80
2017-10-15T03:30:21.531Z,28.80
2017-10-15T03:32:48.580Z,13.17
2017-10-15T03:35:14.876Z,16.57
2017-10-15T03:37:41.318Z,19.00
2017-10-15T03:40:07.587Z,17.37
2017-10-15T03:42:33.844Z,21.83
2017-10-15T03:45:00.069Z,21.43
2017-10-15T03:47:26.337Z,18.03
2017-10-15T03:49:52.554Z,28.53
2017-10-15T03:52:18.759Z,17.73
2017-10-15T03:54:44.968Z,13.73
2017-10-15T03:57:11.158Z,16.67
2017-10-15T03:59:37.369Z,22.97
2017-10-15T04:02:03.575Z,15.17
2017-10-15T04:04:29.744Z,16.40
2017-10-15T04:06:56.651Z,16.53
2017-10-15T04:09:22.810Z,19.20
2017-10-15T04:11:48.995Z,12.80
2017-10-15T04:14:15.239Z,12.43
2017-10-15T04:16:41.539Z,21.83
2017-10-15T04:19:07.764Z,20.80
2017-10-15T04:21:34.028Z,21.23
2017-10-15T04:24:00.199Z,14.30
2017-10-15T04:26:26.409Z,14.73
2017-10-15T04:28:52.607Z,14.57
2017-10-15T04:31:18.791Z,20.93
2017-10-15T04:33:44.958Z,15.53
2017-10-15T04:36:11.238Z,16.97
2017-10-15T04:38:38.152Z,27.00
2017-10-15T04:41:04.355Z,28.80
2017-10-15T04:43:30.543Z,16.50
2017-10-15T04:45:56.807Z,16.17
2017-10-15T04:48:23.027Z,18.00
2017-10-15T04:50:49.963Z,21.33
2017-10-15T04:53:16.221Z,11.97
2017-10-15T04:55:42.446Z,15.57
2017-10-15T04:58:08.682Z,17.37
2017-10-15T05:00:34.856Z,16.93
2017-10-15T05:03:01.086Z,22.63
2017-10-15T05:05:27.311Z,16.73
2017-10-15T05:07:54.395Z,16.00
2017-10-15T05:10:20.664Z,18.97
2017-10-15T05:12:46.880Z,21.23
2017-10-15T05:15:13.117Z,18.40
2017-10-15T05:17:39.320Z,13.43
2017-10-15T05:20:06.360Z,28.40
2017-10-15T05:22:32.567Z,15.47
2017-10-15T05:24:59.521Z,19.03
2017-10-15T05:27:25.744Z,20.53
2017-10-15T05:29:51.978Z,30.30
2017-10-15T05:32:18.226Z,16.47
2017-10-15T05:34:44.426Z,16.87
2017-10-15T05:37:11.427Z,16.67
2017-10-15T05:39:37.629Z,31.40
2017-10-15T05:42:03.848Z,11.20
2017-10-15T05:44:30.057Z,22.33
2017-10-15T05:46:56.263Z,19.97
2017-10-15T05:49:22.459Z,29.80
2017-10-15T05:51:48.819Z,17.07
2017-10-15T05:54:15.007Z,20.50
2017-10-15T05:56:41.290Z,17.50
2017-10-15T05:59:07.534Z,19.50
2017-10-15T06:01:33.764Z,18.47
2017-10-15T06:04:00.019Z,17.20
2017-10-15T06:06:26.296Z,15.97
2017-10-15T06:08:52.539Z,17.57
2017-10-15T06:11:18.780Z,22.77
2017-10-15T06:13:45.723Z,18.17
2017-10-15T06:16:11.928Z,22.07
2017-10-15T06:18:38.218Z,18.83
2017-10-15T06:21:04.400Z,19.20
2017-10-15T06:23:30.609Z,23.17
2017-10-15T06:25:57.878Z,25.07
2017-10-15T06:28:24.103Z,21.57
2017-10-15T06:30:51.047Z,18.70
2017-10-15T06:33:17.999Z,19.70
2017-10-15T06:35:44.224Z,16.53
2017-10-15T06:38:10.535Z,20.33
2017-10-15T06:40:36.802Z,17.63
2017-10-15T06:43:02.999Z,25.40
2017-10-15T06:45:29.237Z,21.00
2017-10-15T06:47:56.164Z,22.73
2017-10-15T06:50:23.079Z,21.17
2017-10-15T06:52:50.111Z,20.80
2017-10-15T06:55:16.296Z,19.17
2017-10-15T06:57:42.566Z,21.67
2017-10-15T07:00:08.742Z,17.47
2017-10-15T07:02:35.053Z,20.30
2017-10-15T07:05:01.852Z,21.90
2017-10-15T07:07:28.038Z,27.70
2017-10-15T07:09:54.246Z,26.73
2017-10-15T07:12:20.478Z,22.67
2017-10-15T07:14:46.651Z,34.33
2017-10-15T07:17:12.895Z,44.13
2017-10-15T07:19:39.082Z,38.73
2017-10-15T07:22:05.282Z,92.13
2017-10-15T07:24:31.482Z,55.57
2017-10-15T07:26:57.676Z,53.93
2017-10-15T07:29:23.899Z,66.47
2017-10-15T07:31:50.105Z,157.37
2017-10-15T07:34:16.312Z,132.63
2017-10-15T07:36:42.522Z,118.87
2017-10-15T07:39:08.775Z,203.80
2017-10-15T07:41:35.071Z,146.53
2017-10-15T07:44:01.411Z,67.63
2017-10-15T07:46:27.585Z,123.37
2017-10-15T07:48:54.591Z,142.33
2017-10-15T07:51:21.106Z,90.30
2017-10-15T07:53:47.341Z,114.00
2017-10-15T07:56:13.541Z,73.60
2017-10-15T07:58:39.790Z,80.87
2017-10-15T08:01:06.416Z,87.67
2017-10-15T08:03:32.653Z,79.03
2017-10-15T08:05:58.818Z,77.80
2017-10-15T08:08:25.121Z,60.40
2017-10-15T08:10:53.774Z,48.50
2017-10-15T08:13:20.020Z,48.27
2017-10-15T08:15:46.272Z,63.17
2017-10-15T08:18:12.491Z,63.47
2017-10-15T08:20:38.700Z,65.43
2017-10-15T08:23:04.931Z,61.43
2017-10-15T08:25:31.154Z,71.07
2017-10-15T08:27:57.386Z,60.53
2017-10-15T08:30:23.612Z,79.67
2017-10-15T08:32:50.611Z,58.20
2017-10-15T08:35:16.814Z,76.90
2017-10-15T08:37:43.463Z,69.07
2017-10-15T08:40:09.680Z,88.30
2017-10-15T08:42:35.893Z,79.93
2017-10-15T08:45:02.177Z,78.23
2017-10-15T08:47:28.392Z,115.30
2017-10-15T08:49:54.679Z,98.63
2017-10-15T08:52:20.880Z,102.27
2017-10-15T08:54:47.098Z,98.40
2017-10-15T08:57:13.387Z,84.50
2017-10-15T08:59:40.401Z,84.57
2017-10-15T09:02:06.602Z,82.53
2017-10-15T09:04:32.823Z,102.37
2017-10-15T09:06:59.120Z,89.13
2017-10-15T09:09:25.488Z,72.07
2017-10-15T09:11:51.779Z,72.00
2017-10-15T09:14:18.087Z,66.83
2017-10-15T09:16:44.427Z,62.50
2017-10-15T09:19:11.415Z,78.00
2017-10-15T09:21:37.631Z,74.40
2017-10-15T09:24:03.900Z,84.50
2017-10-15T09:26:30.108Z,86.87
2017-10-15T09:28:56.345Z,82.73
2017-10-15T09:31:22.603Z,74.53
2017-10-15T09:33:48.844Z,82.40
2017-10-15T09:36:15.072Z,88.33
2017-10-15T09:38:41.271Z,78.93
2017-10-15T09:41:08.230Z,87.70
2017-10-15T09:43:34.506Z,98.47
2017-10-15T09:46:00.765Z,92.47
2017-10-15T09:48:27.072Z,81.20
2017-10-15T09:50:53.337Z,86.57
2017-10-15T09:53:19.580Z,101.23
2017-10-15T09:55:45.860Z,100.07
2017-10-15T09:58:12.014Z,101.10
2017-10-15T10:00:38.279Z,107.13
2017-10-15T10:03:04.468Z,99.13
2017-10-15T10:05:30.677Z,101.07
2017-10-15T10:07:56.931Z,90.30
2017-10-15T10:10:23.387Z,85.10
2017-10-15T10:12:49.742Z,93.03
2017-10-15T10:15:16.885Z,86.13
2017-10-15T10:17:43.290Z,79.83
2017-10-15T10:20:09.536Z,80.77
2017-10-15T10:22:35.750Z,79.00
2017-10-15T10:25:02.026Z,84.53
2017-10-15T10:27:28.276Z,86.13
2017-10-15T10:29:54.550Z,81.10
2017-10-15T10:32:20.771Z,85.73
2017-10-15T10:34:47.052Z,84.60
2017-10-15T10:37:13.282Z,85.37
2017-10-15T10:39:39.541Z,85.40
2017-10-15T10:42:05.727Z,91.13
2017-10-15T10:44:31.938Z,87.57
2017-10-15T10:46:58.274Z,89.77
2017-10-15T10:49:24.520Z,86.03
2017-10-15T10:51:50.831Z,83.57
2017-10-15T10:54:17.876Z,86.20
2017-10-15T10:56:44.068Z,75.60
2017-10-15T10:59:11.112Z,75.63
2017-10-15T11:01:38.051Z,74.13
2017-10-15T11:04:05.030Z,70.83
2017-10-15T11:06:31.244Z,64.80
2017-10-15T11:08:57.599Z,66.50
2017-10-15T11:11:23.801Z,80.53
2017-10-15T11:13:50.012Z,70.53
2017-10-15T11:16:16.275Z,69.03
2017-10-15T11:18:42.486Z,65.63
2017-10-15T11:21:08.801Z,61.70
2017-10-15T11:23:35.086Z,59.23
2017-10-15T11:26:01.411Z,55.30
2017-10-15T11:28:27.728Z,59.97
2017-10-15T11:30:54.138Z,54.47
2017-10-15T11:33:20.341Z,51.13
2017-10-15T11:35:46.602Z,52.33
2017-10-15T11:38:13.611Z,47.80
2017-10-15T11:40:39.812Z,47.27
2017-10-15T11:43:06.067Z,49.80
2017-10-15T11:45:33.039Z,40.47
2017-10-15T11:47:59.379Z,45.47
2017-10-15T11:50:25.584Z,46.37
2017-10-15T11:52:51.779Z,48.60
2017-10-15T11:55:18.040Z,49.43
2017-10-15T11:57:44.255Z,45.80
2017-10-15T12:00:10.535Z,38.30
2017-10-15T12:02:46.823Z,39.50
2017-10-15T12:05:13.020Z,52.57
2017-10-15T12:07:39.231Z,43.63
2017-10-15T12:10:05.468Z,34.00
2017-10-15T12:12:31.702Z,35.57
2017-10-15T12:14:58.065Z,34.47
2017-10-15T12:17:24.256Z,33.20
2017-10-15T12:19:50.636Z,31.63
2017-10-15T12:22:16.803Z,31.73
2017-10-15T12:24:43.083Z,39.33
2017-10-15T12:27:09.355Z,30.00
2017-10-15T12:29:35.602Z,34.90
2017-10-15T12:32:01.908Z,34.47
2017-10-15T12:34:28.894Z,31.37
2017-10-15T12:36:55.116Z,31.03
2017-10-15T12:39:21.358Z,34.03
2017-10-15T12:41:47.567Z,31.07
2017-10-15T12:44:13.780Z,29.93
2017-10-15T12:46:39.990Z,34.37
2017-10-15T12:49:06.178Z,29.40
2017-10-15T12:51:32.452Z,29.30
2017-10-15T12:53:58.683Z,31.70
2017-10-15T12:56:24.922Z,28.67
2017-10-15T12:58:51.134Z,27.83
2017-10-15T13:01:17.294Z,27.20
2017-10-15T13:03:44.206Z,29.53
2017-10-15T13:06:10.462Z,32.73
2017-10-15T13:08:36.662Z,32.40
2017-10-15T13:11:02.887Z,44.17
2017-10-15T13:13:31.331Z,30.00
2017-10-15T13:16:00.548Z,31.97
2017-10-15T13:18:26.795Z,33.40
2017-10-15T13:20:53.087Z,31.03
2017-10-15T13:23:19.395Z,29.20
2017-10-15T13:25:45.583Z,33.60
2017-10-15T13:28:11.857Z,31.30
2017-10-15T13:30:38.069Z,30.60
2017-10-15T13:33:05.105Z,33.47
2017-10-15T13:35:31.319Z,36.73
2017-10-15T13:37:57.503Z,32.63
2017-10-15T13:40:23.738Z,30.13
2017-10-15T13:42:49.944Z,39.17
2017-10-15T13:45:16.157Z,44.93
2017-10-15T13:47:42.360Z,36.00
2017-10-15T13:50:08.665Z,32.10
2017-10-15T13:52:34.931Z,30.03
2017-10-15T13:55:01.806Z,40.10
2017-10-15T13:57:28.007Z,35.73
2017-10-15T13:59:54.217Z,36.93
2017-10-15T14:02:20.414Z,34.67
2017-10-15T14:04:46.606Z,30.37
2017-10-15T14:07:13.586Z,34.97
2017-10-15T14:09:39.823Z,36.30
2017-10-15T14:12:06.127Z,36.27
2017-10-15T14:14:32.348Z,33.40
2017-10-15T14:16:58.572Z,35.10
2017-10-15T14:19:24.894Z,30.03
2017-10-15T14:21:51.350Z,30.10
2017-10-15T14:24:17.502Z,36.50
2017-10-15T14:26:43.710Z,32.73
2017-10-15T14:29:09.952Z,34.60
2017-10-15T14:31:36.203Z,34.47
2017-10-15T14:34:02.425Z,42.20
2017-10-15T14:36:28.722Z,35.73
2017-10-15T14:38:55.010Z,37.40
2017-10-15T14:41:21.241Z,37.53
2017-10-15T14:43:47.435Z,34.23
2017-10-15T14:46:13.646Z,33.03
2017-10-15T14:48:39.875Z,32.13
2017-10-15T14:51:06.150Z,34.80
2017-10-15T14:53:32.395Z,38.83
2017-10-15T14:55:59.371Z,37.10
2017-10-15T14:58:25.661Z,40.73
2017-10-15T15:00:52.634Z,32.40
2017-10-15T15:03:18.862Z,31.00
2017-10-15T15:05:45.087Z,38.53
2017-10-15T15:08:11.296Z,33.00
2017-10-15T15:10:37.526Z,35.50
2017-10-15T15:13:03.877Z,38.13
2017-10-15T15:15:30.068Z,38.83
2017-10-15T15:17:57.098Z,122.50
2017-10-15T15:20:23.400Z,31.60
2017-10-15T15:22:50.484Z,47.30
2017-10-15T15:25:16.721Z,34.17
2017-10-15T15:27:43.031Z,125.07
2017-10-15T15:30:09.273Z,35.93
2017-10-15T15:32:36.285Z,22.20
2017-10-15T15:35:02.540Z,44.03
2017-10-15T15:37:28.786Z,41.17
2017-10-15T15:39:55.865Z,34.30
2017-10-15T15:42:22.040Z,29.57
2017-10-15T15:44:48.223Z,28.03
2017-10-15T15:47:14.441Z,24.63
2017-10-15T15:49:40.647Z,37.23
2017-10-15T15:52:07.725Z,23.00
2017-10-15T15:54:34.676Z,31.47
2017-10-15T15:57:00.889Z,28.30
2017-10-15T15:59:27.160Z,39.70
2017-10-15T16:01:54.101Z,34.43
2017-10-15T16:04:21.740Z,29.53
2017-10-15T16:06:47.987Z,31.40
2017-10-15T16:09:14.250Z,24.30
2017-10-15T16:11:40.450Z,31.07
2017-10-15T16:14:06.775Z,43.53
2017-10-15T16:16:32.955Z,45.20
2017-10-15T16:18:59.260Z,43.80
2017-10-15T16:21:25.484Z,33.77
2017-10-15T16:23:51.701Z,31.70
2017-10-15T16:26:17.899Z,39.87
2017-10-15T16:28:44.208Z,34.60
2017-10-15T16:31:10.482Z,39.77
2017-10-15T16:33:36.776Z,41.47
2017-10-15T16:36:03.111Z,37.53
2017-10-15T16:38:29.328Z,41.70
2017-10-15T16:40:55.523Z,34.07
2017-10-15T16:43:21.771Z,45.97
2017-10-15T16:45:48.732Z,48.40
2017-10-15T16:48:14.899Z,47.03
2017-10-15T16:50:41.101Z,63.63
2017-10-15T16:53:08.242Z,43.80
2017-10-15T16:55:37.430Z,62.77
2017-10-15T16:58:03.661Z,45.87
2017-10-15T17:00:30.673Z,42.20
2017-10-15T17:02:57.001Z,46.23
2017-10-15T17:05:23.983Z,50.20
2017-10-15T17:07:50.436Z,50.00
2017-10-15T17:10:16.695Z,56.07
2017-10-15T17:12:44.944Z,46.67
2017-10-15T17:15:11.191Z,45.23
2017-10-15T17:17:37.464Z,47.87
2017-10-15T17:20:03.672Z,49.93
2017-10-15T17:22:30.640Z,48.60
2017-10-15T17:24:57.799Z,54.27
2017-10-15T17:27:23.996Z,54.37
2017-10-15T17:29:50.171Z,55.37
2017-10-15T17:32:17.372Z,54.73
2017-10-15T17:34:43.648Z,63.77
2017-10-15T17:37:09.916Z,51.67
2017-10-15T17:39:36.132Z,50.00
2017-10-15T17:42:02.357Z,57.17
2017-10-15T17:44:29.732Z,46.37
2017-10-15T17:46:55.990Z,49.63
2017-10-15T17:49:22.222Z,59.07
2017-10-15T17:51:49.171Z,48.90
2017-10-15T17:54:15.444Z,47.47
2017-10-15T17:56:43.271Z,52.50
2017-10-15T17:59:10.291Z,79.83
2017-10-15T18:01:36.566Z,170.00
2017-10-15T18:04:03.868Z,81.93
2017-10-15T18:06:31.165Z,111.27
2017-10-15T18:08:57.410Z,138.90
2017-10-15T18:11:23.626Z,81.60
2017-10-15T18:13:49.867Z,66.23
2017-10-15T18:16:16.866Z,73.40
2017-10-15T18:18:43.114Z,105.50
2017-10-15T18:21:09.379Z,75.27
2017-10-15T18:23:35.583Z,55.67
2017-10-15T18:26:01.835Z,94.00
2017-10-15T18:28:28.112Z,62.93
2017-10-15T18:30:54.356Z,63.77
2017-10-15T18:33:20.688Z,79.57
2017-10-15T18:35:46.961Z,60.70
2017-10-15T18:38:14.165Z,66.83
2017-10-15T18:40:40.415Z,70.67
2017-10-15T18:43:06.655Z,67.00
2017-10-15T18:45:32.900Z,56.80
2017-10-15T18:48:03.115Z,64.73
2017-10-15T18:50:30.150Z,69.00
2017-10-15T18:52:57.160Z,64.50
2017-10-15T18:55:23.425Z,56.27
2017-10-15T18:57:49.821Z,63.10
2017-10-15T19:00:17.065Z,59.13
2017-10-15T19:02:43.271Z,77.27
2017-10-15T19:05:11.277Z,71.63
2017-10-15T19:07:37.822Z,54.47
2017-10-15T19:10:04.266Z,86.73
2017-10-15T19:12:30.479Z,60.97
2017-10-15T19:14:56.710Z,60.93
2017-10-15T19:17:22.891Z,66.13
2017-10-15T19:19:49.160Z,62.40
2017-10-15T19:22:15.422Z,54.80
2017-10-15T19:24:41.675Z,53.00
2017-10-15T19:27:08.712Z,59.60
2017-10-15T19:29:34.954Z,59.73
2017-10-15T19:32:01.185Z,52.87
2017-10-15T19:34:27.601Z,53.23
2017-10-15T19:36:53.804Z,52.27
2017-10-15T19:39:20.028Z,64.60
2017-10-15T19:41:46.284Z,55.77
2017-10-15T19:44:12.517Z,48.60
2017-10-15T19:46:38.961Z,49.03
2017-10-15T19:49:05.191Z,46.90
2017-10-15T19:51:31.490Z,39.77
2017-10-15T19:53:58.163Z,46.63
2017-10-15T19:56:24.450Z,46.10
2017-10-15T19:58:50.654Z,51.47
2017-10-15T20:01:17.260Z,53.27
2017-10-15T20:03:43.708Z,58.07
2017-10-15T20:06:10.741Z,55.17
2017-10-15T20:08:36.961Z,49.17
2017-10-15T20:11:03.392Z,48.80
2017-10-15T20:13:30.127Z,74.53
2017-10-15T20:15:56.310Z,51.33
2017-10-15T20:18:23.272Z,52.37
2017-10-15T20:20:49.477Z,50.70
2017-10-15T20:23:15.751Z,59.30
2017-10-15T20:25:42.022Z,43.23
2017-10-15T20:28:08.233Z,54.77
2017-10-15T20:30:34.427Z,52.50
2017-10-15T20:33:00.688Z,56.77
2017-10-15T20:35:26.897Z,46.57
2017-10-15T20:37:53.077Z,43.50
2017-10-15T20:40:19.310Z,46.73
2017-10-15T20:42:45.551Z,48.40
2017-10-15T20:45:11.848Z,48.60
2017-10-15T20:47:38.807Z,41.17
2017-10-15T20:50:05.135Z,50.43
2017-10-15T20:52:31.340Z,49.23
2017-10-15T20:54:57.649Z,46.57
2017-10-15T20:57:23.900Z,44.97
2017-10-15T20:59:50.915Z,41.23
2017-10-15T21:02:17.102Z,50.53
2017-10-15T21:04:43.346Z,45.33
2017-10-15T21:07:09.609Z,41.03
2017-10-15T21:09:36.592Z,48.37
2017-10-15T21:12:02.881Z,48.23
2017-10-15T21:14:29.856Z,46.07
2017-10-15T21:16:56.105Z,41.30
2017-10-15T21:19:22.356Z,48.30
2017-10-15T21:21:48.575Z,43.83
2017-10-15T21:24:14.915Z,37.20
2017-10-15T21:26:41.115Z,42.83
2017-10-15T21:29:07.376Z,50.73
2017-10-15T21:31:33.632Z,51.10
2017-10-15T21:33:59.872Z,42.57
2017-10-15T21:36:26.246Z,43.30
2017-10-15T21:38:52.479Z,40.23
2017-10-15T21:41:18.782Z,44.10
2017-10-15T21:43:45.045Z,41.97
2017-10-15T21:46:11.252Z,47.50
2017-10-15T21:48:37.451Z,42.50
2017-10-15T21:51:03.795Z,41.90
2017-10-15T21:53:30.028Z,56.90
2017-10-15T21:55:57.212Z,42.57
2017-10-15T21:58:23.406Z,37.43
2017-10-15T22:00:49.609Z,42.07
2017-10-15T22:03:15.892Z,35.30
2017-10-15T22:05:42.945Z,44.03
2017-10-15T22:08:09.167Z,40.03
2017-10-15T22:10:35.422Z,34.50
2017-10-15T22:13:01.617Z,39.77
2017-10-15T22:15:27.897Z,42.77
2017-10-15T22:17:54.851Z,47.20
2017-10-15T22:20:21.143Z,54.93
2017-10-15T22:22:47.427Z,45.50
2017-10-15T22:25:13.662Z,43.50
2017-10-15T22:27:40.656Z,47.40
2017-10-15T22:30:06.897Z,44.23
2017-10-15T22:32:33.884Z,42.87
2017-10-15T22:35:00.108Z,42.87
2017-10-15T22:37:26.528Z,42.17
2017-10-15T22:39:52.780Z,52.03
2017-10-15T22:42:19.148Z,47.90
2017-10-15T22:44:45.432Z,51.37
2017-10-15T22:47:11.714Z,54.03
2017-10-15T22:49:37.972Z,45.50
2017-10-15T22:52:04.718Z,52.30
2017-10-15T22:54:31.002Z,47.03
2017-10-15T22:56:57.235Z,49.47
2017-10-15T22:59:23.603Z,52.50
2017-10-15T23:01:50.609Z,49.63
2017-10-15T23:04:16.788Z,46.53
2017-10-15T23:06:43.071Z,47.40
2017-10-15T23:09:09.371Z,55.93
2017-10-15T23:11:36.425Z,48.17
2017-10-15T23:14:02.912Z,50.10
2017-10-15T23:16:29.476Z,59.63
2017-10-15T23:18:55.671Z,46.83
2017-10-15T23:21:22.642Z,47.20
2017-10-15T23:23:48.846Z,46.53
2017-10-15T23:26:15.078Z,49.57
2017-10-15T23:28:41.321Z,48.03
2017-10-15T23:31:07.558Z,47.43
2017-10-15T23:33:34.553Z,48.13
2017-10-15T23:36:01.639Z,46.93
2017-10-15T23:38:27.855Z,43.77
2017-10-15T23:40:54.170Z,47.10
2017-10-15T23:43:20.449Z,49.27
2017-10-15T23:45:46.681Z,50.53
2017-10-15T23:48:12.984Z,42.17
2017-10-15T23:50:39.232Z,48.33
2017-10-15T23:53:05.427Z,44.47
2017-10-15T23:55:31.737Z,53.87
2017-10-15T23:57:57.969Z,62.87
